Time;durP1;ratioP1;P1;durP2;ratioP2;P2;SDS_P1;SDS_P2;PMS_P1;PMS_P2;Temp;Humidity;BMP_temperature;BMP_pressure;BME280_temperature;BME280_humidity;BME280_pressure;Samples;Min_cycle;Max_cycle;Signal;HPM_P1;HPM_P2
2023/12/22 00:02:16;;;;;;;;;;;4.50;99.90;;;;;;5104132;28;20399;-76
2023/12/22 00:05:02;;;;;;;;;;;4.30;99.90;;;;;;5097947;28;19913;-77
2023/12/22 00:07:49;;;;;;;;;;;4.40;99.90;;;;;;5107005;28;20232;-77
2023/12/22 00:10:35;;;;;;;;;;;4.30;99.90;;;;;;5116521;28;19912;-77
2023/12/22 00:13:22;;;;;;;;;;;4.30;99.90;;;;;;5083951;28;19947;-76
2023/12/22 00:16:08;;;;;;;;;;;4.30;99.90;;;;;;5105639;28;19915;-77
2023/12/22 00:18:55;;;;;;;;;;;4.30;99.90;;;;;;5097400;28;19995;-76
2023/12/22 00:21:41;;;;;;;;;;;4.30;99.90;;;;;;5101533;28;19927;-77
2023/12/22 00:24:27;;;;;;;;;;;4.30;99.90;;;;;;5101749;28;19968;-77
2023/12/22 00:27:13;;;;;;;;;;;4.40;99.90;;;;;;5104981;28;19945;-77
2023/12/22 00:29:59;;;;;;;;;;;4.50;99.90;;;;;;5116708;28;20348;-77
2023/12/22 00:32:45;;;;;;;;;;;4.50;99.90;;;;;;5111276;28;19961;-76
2023/12/22 00:35:31;;;;;;;;;;;4.50;99.90;;;;;;5116464;28;20053;-78
2023/12/22 00:38:17;;;;;;;;;;;4.60;99.90;;;;;;5102835;28;19968;-77
2023/12/22 00:41:03;;;;;;;;;;;4.60;99.90;;;;;;5102334;28;19920;-78
2023/12/22 00:43:48;;;;;;;;;;;4.60;99.90;;;;;;5117059;28;20244;-77
2023/12/22 00:46:34;;;;;;;;;;;4.60;99.90;;;;;;5116391;28;19980;-77
2023/12/22 00:49:21;;;;;;;;;;;4.70;99.90;;;;;;5109953;28;19915;-77
2023/12/22 00:52:07;;;;;;;;;;;4.70;99.90;;;;;;5112221;28;20028;-76
2023/12/22 00:54:53;;;;;;;;;;;4.70;99.90;;;;;;5091866;28;19923;-76
2023/12/22 00:57:39;;;;;;;;;;;4.70;99.90;;;;;;5116809;28;19933;-77
2023/12/22 01:00:25;;;;;;;;;;;4.70;99.90;;;;;;5082344;28;19912;-77
2023/12/22 01:03:11;;;;;;;;;;;4.80;99.90;;;;;;5106505;28;20297;-76
2023/12/22 01:05:57;;;;;;;;;;;4.80;99.90;;;;;;5108930;28;19947;-77
2023/12/22 01:08:43;;;;;;;;;;;4.80;99.90;;;;;;5116270;28;19926;-78
2023/12/22 01:11:29;;;;;;;;;;;4.80;99.90;;;;;;5096310;28;20013;-77
2023/12/22 01:14:15;;;;;;;;;;;4.80;99.90;;;;;;5114905;28;19961;-77
2023/12/22 01:17:01;;;;;;;;;;;4.80;99.90;;;;;;5116908;28;19945;-77
2023/12/22 01:19:46;;;;;;;;;;;4.90;99.90;;;;;;5099356;28;20296;-79
2023/12/22 01:22:34;;;;;;;;;;;4.90;99.90;;;;;;5100243;28;19995;-77
2023/12/22 01:25:20;;;;;;;;;;;4.90;99.90;;;;;;5111979;28;19912;-78
2023/12/22 01:28:06;;;;;;;;;;;4.90;99.90;;;;;;5100722;28;19918;-77
2023/12/22 01:30:51;;;;;;;;;;;4.90;99.90;;;;;;5108427;28;19912;-77
2023/12/22 01:33:37;;;;;;;;;;;5.00;99.90;;;;;;5111454;28;20244;-80
2023/12/22 01:36:23;;;;;;;;;;;5.00;99.90;;;;;;5112832;28;20002;-78
2023/12/22 01:39:09;;;;;;;;;;;4.90;99.90;;;;;;5116676;28;19987;-78
2023/12/22 01:41:55;;;;;;;;;;;5.00;99.90;;;;;;5117381;28;19912;-78
2023/12/22 01:44:43;;;;;;;;;;;4.90;99.90;;;;;;5114007;28;20235;-77
2023/12/22 01:47:28;;;;;;;;;;;5.00;99.90;;;;;;5099619;28;20389;-79
2023/12/22 01:50:14;;;;;;;;;;;5.00;99.90;;;;;;5092231;28;19999;-79
2023/12/22 01:53:00;;;;;;;;;;;5.00;99.90;;;;;;5098688;28;20001;-79
2023/12/22 01:55:47;;;;;;;;;;;5.00;99.90;;;;;;5102460;28;20381;-79
2023/12/22 01:58:32;;;;;;;;;;;5.00;99.90;;;;;;5106947;28;19948;-78
2023/12/22 02:01:20;;;;;;;;;;;4.90;99.90;;;;;;5112485;28;19968;-79
2023/12/22 02:04:05;;;;;;;;;;;4.90;99.90;;;;;;5102109;28;19922;-78
2023/12/22 02:06:51;;;;;;;;;;;4.90;99.90;;;;;;5112017;28;20209;-78
2023/12/22 02:09:37;;;;;;;;;;;5.00;99.90;;;;;;5081510;28;19916;-77
2023/12/22 02:12:23;;;;;;;;;;;5.00;99.90;;;;;;5083380;28;20248;-78
2023/12/22 02:15:09;;;;;;;;;;;4.90;99.90;;;;;;5115374;28;20018;-80
2023/12/22 02:17:59;;;;;;;;;;;4.90;99.90;;;;;;5101585;28;19943;-76
2023/12/22 02:20:45;;;;;;;;;;;4.90;99.90;;;;;;5113879;28;19912;-78
2023/12/22 02:23:31;;;;;;;;;;;4.90;99.90;;;;;;5102256;28;19912;-78
2023/12/22 02:26:32;;;;;;;;;;;4.90;99.90;;;;;;5115998;28;19923;-78
2023/12/22 02:29:19;;;;;;;;;;;4.90;99.90;;;;;;5114968;28;19923;-79
2023/12/22 02:32:11;;;;;;;;;;;4.90;99.90;;;;;;5099275;28;19977;-79
2023/12/22 02:34:57;;;;;;;;;;;4.80;99.90;;;;;;5083830;28;20240;-78
2023/12/22 02:37:43;;;;;;;;;;;4.80;99.90;;;;;;5114198;28;19961;-78
2023/12/22 02:40:28;;;;;;;;;;;4.70;99.90;;;;;;5116131;28;19911;-78
2023/12/22 02:43:14;;;;;;;;;;;4.70;99.90;;;;;;5088591;28;19961;-79
2023/12/22 02:46:00;;;;;;;;;;;4.60;99.90;;;;;;5104495;28;20547;-77
2023/12/22 02:48:47;;;;;;;;;;;4.60;99.90;;;;;;5096090;28;19912;-78
2023/12/22 02:51:33;;;;;;;;;;;4.50;99.90;;;;;;5081068;28;19916;-78
2023/12/22 02:54:19;;;;;;;;;;;4.50;99.90;;;;;;5101260;28;19912;-79
2023/12/22 02:57:05;;;;;;;;;;;4.40;99.90;;;;;;5102058;28;19941;-78
2023/12/22 02:59:51;;;;;;;;;;;4.40;99.90;;;;;;5097157;28;19916;-78
2023/12/22 03:02:37;;;;;;;;;;;4.40;99.90;;;;;;5095099;28;19927;-78
2023/12/22 03:05:23;;;;;;;;;;;4.40;99.90;;;;;;5100762;28;20328;-78
2023/12/22 03:08:08;;;;;;;;;;;4.40;99.90;;;;;;5101705;28;19922;-80
2023/12/22 03:10:54;;;;;;;;;;;4.40;99.90;;;;;;5095393;28;19920;-81
2023/12/22 03:13:40;;;;;;;;;;;4.40;99.90;;;;;;5094310;28;19924;-80
2023/12/22 03:16:26;;;;;;;;;;;4.40;99.90;;;;;;5108034;28;19916;-78
2023/12/22 03:19:12;;;;;;;;;;;4.40;99.90;;;;;;5101781;28;20003;-79
2023/12/22 03:21:58;;;;;;;;;;;4.50;99.90;;;;;;5086875;28;20198;-78
2023/12/22 03:24:44;;;;;;;;;;;4.50;99.90;;;;;;5108189;28;19923;-78
2023/12/22 03:27:30;;;;;;;;;;;4.50;99.90;;;;;;5115156;28;19916;-79
2023/12/22 03:30:16;;;;;;;;;;;4.40;99.90;;;;;;5100487;28;20256;-79
2023/12/22 03:33:02;;;;;;;;;;;4.40;99.90;;;;;;5115708;28;19912;-77
2023/12/22 03:35:47;;;;;;;;;;;4.40;99.90;;;;;;5112803;28;19920;-77
2023/12/22 03:38:33;;;;;;;;;;;4.30;99.90;;;;;;5100877;28;19951;-77
2023/12/22 03:41:19;;;;;;;;;;;4.20;99.90;;;;;;5081558;28;19912;-78
2023/12/22 03:44:05;;;;;;;;;;;4.10;99.90;;;;;;5103463;28;20002;-78
2023/12/22 03:46:51;;;;;;;;;;;4.10;99.90;;;;;;5113791;28;20282;-76
2023/12/22 03:49:37;;;;;;;;;;;4.10;99.90;;;;;;5102639;28;20458;-77
2023/12/22 03:52:23;;;;;;;;;;;4.10;99.90;;;;;;5118212;28;19920;-77
2023/12/22 03:55:09;;;;;;;;;;;4.10;99.90;;;;;;5090492;28;20275;-77
2023/12/22 03:57:54;;;;;;;;;;;4.10;99.90;;;;;;5097924;28;19923;-77
2023/12/22 04:00:40;;;;;;;;;;;4.10;99.90;;;;;;5083807;28;20388;-78
2023/12/22 04:03:26;;;;;;;;;;;4.10;99.90;;;;;;5098400;28;19956;-77
2023/12/22 04:06:12;;;;;;;;;;;4.10;99.90;;;;;;5108716;28;19969;-78
2023/12/22 04:08:58;;;;;;;;;;;4.10;99.90;;;;;;5096900;28;19919;-77
2023/12/22 04:11:44;;;;;;;;;;;4.10;99.90;;;;;;5097456;28;19977;-77
2023/12/22 04:14:31;;;;;;;;;;;4.10;99.90;;;;;;5101663;28;19912;-77
2023/12/22 04:17:16;;;;;;;;;;;4.00;99.90;;;;;;5086596;28;19977;-78
2023/12/22 04:20:02;;;;;;;;;;;4.00;99.90;;;;;;5103963;28;19931;-78
2023/12/22 04:22:48;;;;;;;;;;;4.00;99.90;;;;;;5103412;28;19912;-77
2023/12/22 04:25:34;;;;;;;;;;;4.10;99.90;;;;;;5117531;28;19912;-77
2023/12/22 04:28:21;;;;;;;;;;;4.10;99.90;;;;;;5098664;28;20032;-77
2023/12/22 04:31:07;;;;;;;;;;;4.10;99.90;;;;;;5101707;28;19958;-78
2023/12/22 04:33:53;;;;;;;;;;;4.20;99.90;;;;;;5101684;28;20337;-78
2023/12/22 04:36:39;;;;;;;;;;;4.10;99.90;;;;;;5103703;28;20307;-78
2023/12/22 04:39:25;;;;;;;;;;;4.20;99.90;;;;;;5099403;28;19912;-77
2023/12/22 04:42:11;;;;;;;;;;;4.30;99.90;;;;;;5115093;28;19912;-78
2023/12/22 04:44:56;;;;;;;;;;;4.30;99.90;;;;;;5101889;28;19973;-77
2023/12/22 04:47:42;;;;;;;;;;;4.30;99.90;;;;;;5118084;28;20478;-77
2023/12/22 04:50:28;;;;;;;;;;;4.30;99.90;;;;;;5115345;28;19912;-77
2023/12/22 04:53:15;;;;;;;;;;;4.40;99.90;;;;;;5105723;28;20350;-77
2023/12/22 04:56:01;;;;;;;;;;;4.40;99.90;;;;;;5097195;28;19978;-77
2023/12/22 04:58:47;;;;;;;;;;;4.40;99.90;;;;;;5104853;28;19916;-77
2023/12/22 05:01:33;;;;;;;;;;;4.30;99.90;;;;;;5093420;28;19927;-77
2023/12/22 05:04:19;;;;;;;;;;;4.30;99.90;;;;;;5116178;28;20000;-77
2023/12/22 05:07:09;;;;;;;;;;;4.10;99.90;;;;;;5102325;28;19951;-77
2023/12/22 05:09:55;;;;;;;;;;;4.10;99.90;;;;;;5104190;28;19912;-78
2023/12/22 05:12:41;;;;;;;;;;;4.10;99.90;;;;;;5101267;28;20303;-77
2023/12/22 05:15:27;;;;;;;;;;;4.00;99.90;;;;;;5115279;28;20233;-77
2023/12/22 05:18:13;;;;;;;;;;;4.00;99.90;;;;;;5115560;28;19942;-77
2023/12/22 05:20:59;;;;;;;;;;;4.00;99.90;;;;;;5116005;28;20256;-78
2023/12/22 05:23:44;;;;;;;;;;;4.00;99.90;;;;;;5102767;28;19912;-77
2023/12/22 05:26:32;;;;;;;;;;;4.00;99.90;;;;;;5117036;28;19979;-77
2023/12/22 05:29:18;;;;;;;;;;;4.00;99.90;;;;;;5104509;28;19916;-77
2023/12/22 05:32:04;;;;;;;;;;;4.00;99.90;;;;;;5110974;28;19944;-78
2023/12/22 05:34:50;;;;;;;;;;;4.00;99.90;;;;;;5097510;28;19920;-77
2023/12/22 05:37:36;;;;;;;;;;;4.00;99.90;;;;;;5110465;28;20282;-77
2023/12/22 05:40:21;;;;;;;;;;;4.10;99.90;;;;;;5096295;28;19923;-77
2023/12/22 05:43:07;;;;;;;;;;;4.00;99.90;;;;;;5082125;28;19923;-78
2023/12/22 05:45:53;;;;;;;;;;;4.10;99.90;;;;;;5096572;28;19916;-77
2023/12/22 05:48:39;;;;;;;;;;;4.00;99.90;;;;;;5096848;28;19912;-78
2023/12/22 05:51:25;;;;;;;;;;;4.10;99.90;;;;;;5093831;28;19916;-78
2023/12/22 05:54:11;;;;;;;;;;;4.20;99.90;;;;;;5089071;28;20304;-78
2023/12/22 05:56:57;;;;;;;;;;;4.20;99.90;;;;;;5115850;28;19915;-77
2023/12/22 05:59:43;;;;;;;;;;;4.20;99.90;;;;;;5095500;28;19916;-78
2023/12/22 06:02:28;;;;;;;;;;;4.20;99.90;;;;;;5096669;28;20003;-78
2023/12/22 06:05:14;;;;;;;;;;;4.10;99.90;;;;;;5082367;28;19912;-77
2023/12/22 06:08:00;;;;;;;;;;;4.10;99.90;;;;;;5095058;28;19920;-78
2023/12/22 06:10:46;;;;;;;;;;;4.20;99.90;;;;;;5080840;28;19998;-77
2023/12/22 06:13:32;;;;;;;;;;;4.20;99.90;;;;;;5099440;28;19912;-77
2023/12/22 06:16:18;;;;;;;;;;;4.20;99.90;;;;;;5112253;28;19915;-77
2023/12/22 06:19:05;;;;;;;;;;;4.20;99.90;;;;;;5096660;28;19912;-77
2023/12/22 06:21:51;;;;;;;;;;;4.10;99.90;;;;;;5095084;28;19999;-76
2023/12/22 06:24:37;;;;;;;;;;;4.10;99.90;;;;;;5111689;28;19930;-78
2023/12/22 06:27:23;;;;;;;;;;;4.10;99.90;;;;;;5114576;28;19951;-76
2023/12/22 06:30:09;;;;;;;;;;;4.10;99.90;;;;;;5095731;28;19912;-78
2023/12/22 06:32:55;;;;;;;;;;;4.00;99.90;;;;;;5099157;28;19911;-78
2023/12/22 06:35:41;;;;;;;;;;;4.00;99.90;;;;;;5116880;28;19947;-78
2023/12/22 06:38:28;;;;;;;;;;;4.00;99.90;;;;;;5094852;28;19955;-77
2023/12/22 06:41:27;;;;;;;;;;;4.00;99.90;;;;;;5095104;28;20109;-77
2023/12/22 06:44:12;;;;;;;;;;;4.10;99.90;;;;;;5109429;28;20315;-77
2023/12/22 06:46:58;;;;;;;;;;;4.10;99.90;;;;;;5084845;28;19915;-77
2023/12/22 06:49:44;;;;;;;;;;;4.20;99.90;;;;;;5094183;28;19912;-77
2023/12/22 06:52:30;;;;;;;;;;;4.20;99.90;;;;;;5101995;28;20003;-77
2023/12/22 06:55:16;;;;;;;;;;;4.30;99.90;;;;;;5079523;28;19959;-76
2023/12/22 06:58:02;;;;;;;;;;;4.30;99.90;;;;;;5098103;28;20038;-77
2023/12/22 07:00:50;;;;;;;;;;;4.30;99.90;;;;;;5098682;28;19923;-76
2023/12/22 07:03:37;;;;;;;;;;;4.30;99.90;;;;;;5112890;28;19912;-77
2023/12/22 07:06:26;;;;;;;;;;;4.20;99.90;;;;;;5088250;28;19962;-78
2023/12/22 07:09:15;;;;;;;;;;;4.20;99.90;;;;;;5095211;28;19939;-77
2023/12/22 07:12:03;;;;;;;;;;;4.20;99.90;;;;;;5115846;28;19976;-77
2023/12/22 07:14:50;;;;;;;;;;;4.20;99.90;;;;;;5114357;28;20421;-77
2023/12/22 07:17:38;;;;;;;;;;;4.20;99.90;;;;;;5114740;28;20910;-76
2023/12/22 07:20:25;;;;;;;;;;;4.20;99.90;;;;;;5090707;28;19919;-76
2023/12/22 07:23:12;;;;;;;;;;;4.30;99.90;;;;;;5105418;28;20320;-76
2023/12/22 07:25:59;;;;;;;;;;;4.30;99.90;;;;;;5115883;28;19957;-76
2023/12/22 07:28:46;;;;;;;;;;;4.30;99.90;;;;;;5104863;28;19912;-77
2023/12/22 07:31:32;;;;;;;;;;;4.30;99.90;;;;;;5098577;28;19912;-76
2023/12/22 07:34:19;;;;;;;;;;;4.30;99.90;;;;;;5101051;28;19985;-76
2023/12/22 07:37:06;;;;;;;;;;;4.30;99.90;;;;;;5084642;28;20375;-77
2023/12/22 07:39:52;;;;;;;;;;;4.30;99.90;;;;;;5117934;28;19958;-77
2023/12/22 07:42:39;;;;;;;;;;;4.30;99.90;;;;;;5104165;28;19912;-77
2023/12/22 07:45:26;;;;;;;;;;;4.30;99.90;;;;;;5091147;28;20347;-76
2023/12/22 07:48:14;;;;;;;;;;;4.30;99.90;;;;;;5104446;28;19919;-77
2023/12/22 07:51:01;;;;;;;;;;;4.40;99.90;;;;;;5118468;28;19955;-77
2023/12/22 07:53:48;;;;;;;;;;;4.40;99.90;;;;;;5108192;28;19923;-76
2023/12/22 07:56:36;;;;;;;;;;;4.40;99.90;;;;;;5095494;28;19915;-77
2023/12/22 07:59:21;;;;;;;;;;;4.40;99.90;;;;;;5113215;28;19943;-77
2023/12/22 08:02:09;;;;;;;;;;;4.40;99.90;;;;;;5102917;28;19970;-77
2023/12/22 08:04:55;;;;;;;;;;;4.30;99.90;;;;;;5103560;28;19969;-77
2023/12/22 08:07:43;;;;;;;;;;;4.40;99.90;;;;;;5116901;28;19911;-77
2023/12/22 08:10:29;;;;;;;;;;;4.40;99.90;;;;;;5119547;28;19923;-77
2023/12/22 08:13:14;;;;;;;;;;;4.40;99.90;;;;;;5118098;28;20244;-77
2023/12/22 08:16:00;;;;;;;;;;;4.30;99.90;;;;;;5097173;28;19915;-77
2023/12/22 08:18:47;;;;;;;;;;;4.40;99.90;;;;;;5111707;28;19919;-78
2023/12/22 08:21:33;;;;;;;;;;;4.40;99.90;;;;;;5102851;28;19958;-77
2023/12/22 08:24:19;;;;;;;;;;;4.20;99.90;;;;;;5118131;27;19916;-77
2023/12/22 08:27:06;;;;;;;;;;;4.20;99.90;;;;;;5108531;28;19912;-77
2023/12/22 08:29:53;;;;;;;;;;;4.10;99.90;;;;;;5111568;28;19912;-76
2023/12/22 08:32:39;;;;;;;;;;;4.10;99.90;;;;;;5104760;28;19911;-77
2023/12/22 08:35:28;;;;;;;;;;;4.10;99.90;;;;;;5081127;28;19921;-77
2023/12/22 08:38:15;;;;;;;;;;;4.00;99.90;;;;;;5083207;28;20029;-77
2023/12/22 08:41:02;;;;;;;;;;;3.90;99.90;;;;;;5097595;28;19912;-76
2023/12/22 08:43:50;;;;;;;;;;;3.90;99.90;;;;;;5100011;28;19911;-76
2023/12/22 08:46:36;;;;;;;;;;;3.90;99.90;;;;;;5107389;28;19990;-77
2023/12/22 08:49:22;;;;;;;;;;;3.90;99.90;;;;;;5104473;28;19923;-76
2023/12/22 08:52:08;;;;;;;;;;;3.90;99.90;;;;;;5104505;28;19912;-77
2023/12/22 08:54:54;;;;;;;;;;;3.80;99.90;;;;;;5106826;28;20248;-77
2023/12/22 08:57:42;;;;;;;;;;;3.80;99.90;;;;;;5097997;28;20008;-76
2023/12/22 09:00:29;;;;;;;;;;;3.80;99.90;;;;;;5099926;28;19922;-76
2023/12/22 09:03:15;;;;;;;;;;;3.80;99.90;;;;;;5114067;28;20232;-76
2023/12/22 09:06:02;;;;;;;;;;;3.90;99.90;;;;;;5092986;28;19943;-76
2023/12/22 09:08:49;;;;;;;;;;;3.90;99.90;;;;;;5104452;28;19916;-77
2023/12/22 09:11:35;;;;;;;;;;;4.00;99.90;;;;;;5082772;28;19923;-76
2023/12/22 09:14:22;;;;;;;;;;;4.00;99.90;;;;;;5099254;28;19927;-77
2023/12/22 09:17:07;;;;;;;;;;;4.10;99.90;;;;;;5102125;28;19926;-77
2023/12/22 09:19:54;;;;;;;;;;;4.20;99.90;;;;;;5125607;27;19911;-77
2023/12/22 09:22:41;;;;;;;;;;;4.30;99.90;;;;;;5096288;28;19912;-77
2023/12/22 09:25:27;;;;;;;;;;;4.40;99.90;;;;;;5090191;28;20243;-76
2023/12/22 09:28:13;;;;;;;;;;;4.50;99.90;;;;;;5092709;28;19954;-76
2023/12/22 09:31:01;;;;;;;;;;;4.70;99.90;;;;;;5115395;28;19994;-76
2023/12/22 09:33:48;;;;;;;;;;;4.90;99.90;;;;;;5097203;28;19990;-75
2023/12/22 09:36:35;;;;;;;;;;;5.10;99.90;;;;;;5102727;28;19916;-77
2023/12/22 09:39:22;;;;;;;;;;;5.30;99.90;;;;;;5116818;28;19912;-77
2023/12/22 09:42:08;;;;;;;;;;;5.40;99.90;;;;;;5103001;28;19941;-77
2023/12/22 09:44:54;;;;;;;;;;;5.40;99.90;;;;;;5117109;28;20350;-77
2023/12/22 09:47:42;;;;;;;;;;;5.40;99.90;;;;;;5113670;28;19912;-78
2023/12/22 09:50:29;;;;;;;;;;;5.40;99.90;;;;;;5115969;28;19972;-77
2023/12/22 09:53:16;;;;;;;;;;;5.40;99.90;;;;;;5115792;28;19923;-78
2023/12/22 09:56:04;;;;;;;;;;;5.40;99.90;;;;;;5111703;28;20425;-77
2023/12/22 09:58:51;;;;;;;;;;;5.40;99.90;;;;;;5098542;28;19961;-78
2023/12/22 10:01:47;;;;;;;;;;;5.40;99.90;;;;;;5091382;28;19915;-76
2023/12/22 10:04:33;;;;;;;;;;;5.30;99.90;;;;;;5096638;28;20183;-77
2023/12/22 10:07:22;;;;;;;;;;;5.10;99.90;;;;;;5097230;28;20335;-77
2023/12/22 10:10:09;;;;;;;;;;;5.10;99.90;;;;;;5115024;28;19912;-77
2023/12/22 10:12:56;;;;;;;;;;;5.10;99.90;;;;;;5088860;28;19912;-76
2023/12/22 10:15:42;;;;;;;;;;;5.00;99.90;;;;;;5100736;28;19973;-77
2023/12/22 10:18:28;;;;;;;;;;;5.10;99.90;;;;;;5100298;27;19912;-77
2023/12/22 10:21:15;;;;;;;;;;;5.10;99.90;;;;;;5093266;28;19915;-78
2023/12/22 10:24:02;;;;;;;;;;;5.10;99.90;;;;;;5116503;27;20275;-76
2023/12/22 10:26:53;;;;;;;;;;;5.10;99.90;;;;;;5099148;28;20343;-77
2023/12/22 10:29:40;;;;;;;;;;;5.20;99.90;;;;;;5109020;28;19912;-77
2023/12/22 10:32:27;;;;;;;;;;;5.20;99.90;;;;;;5103318;27;20369;-77
2023/12/22 10:35:13;;;;;;;;;;;5.20;99.90;;;;;;5109624;28;19977;-76
2023/12/22 10:37:59;;;;;;;;;;;5.20;99.90;;;;;;5101698;28;19915;-77
2023/12/22 10:40:45;;;;;;;;;;;5.40;99.90;;;;;;5096809;28;19922;-77
2023/12/22 10:43:42;;;;;;;;;;;5.30;99.90;;;;;;5081824;28;19912;-77
2023/12/22 10:46:29;;;;;;;;;;;5.30;99.90;;;;;;5081512;28;20363;-78
2023/12/22 10:49:17;;;;;;;;;;;5.20;99.90;;;;;;5104897;28;20355;-78
2023/12/22 10:52:03;;;;;;;;;;;5.30;99.90;;;;;;5102710;28;19934;-77
2023/12/22 10:54:49;;;;;;;;;;;5.30;99.90;;;;;;5114633;28;19911;-77
2023/12/22 10:57:37;;;;;;;;;;;5.20;99.90;;;;;;5112908;28;19927;-77
2023/12/22 11:00:23;;;;;;;;;;;5.10;99.90;;;;;;5100533;28;20367;-76
2023/12/22 11:03:10;;;;;;;;;;;5.10;99.90;;;;;;5094543;28;19927;-77
2023/12/22 11:05:56;;;;;;;;;;;4.90;99.90;;;;;;5096605;28;20248;-78
2023/12/22 11:08:43;;;;;;;;;;;4.90;99.90;;;;;;5081146;28;19912;-77
2023/12/22 11:11:45;;;;;;;;;;;4.90;99.90;;;;;;5095039;28;20316;-77
2023/12/22 11:14:32;;;;;;;;;;;4.80;99.90;;;;;;5091519;28;19995;-77
2023/12/22 11:17:22;;;;;;;;;;;4.70;99.90;;;;;;5114230;28;19916;-78
2023/12/22 11:20:14;;;;;;;;;;;4.50;99.90;;;;;;5102087;28;19911;-78
2023/12/22 11:23:01;;;;;;;;;;;4.30;99.90;;;;;;5111116;28;19922;-77
2023/12/22 11:25:50;;;;;;;;;;;4.40;99.90;;;;;;5089699;28;19920;-77
2023/12/22 11:28:38;;;;;;;;;;;4.30;99.90;;;;;;5093716;28;19977;-77
2023/12/22 11:31:27;;;;;;;;;;;4.30;99.90;;;;;;5080294;28;19916;-77
2023/12/22 11:34:14;;;;;;;;;;;4.30;99.90;;;;;;5066444;28;19981;-78
2023/12/22 11:37:01;;;;;;;;;;;4.30;99.90;;;;;;5065874;28;19923;-77
2023/12/22 11:39:48;;;;;;;;;;;4.30;99.90;;;;;;5063635;28;19927;-77
2023/12/22 11:42:38;;;;;;;;;;;4.30;99.90;;;;;;5078190;28;19948;-78
2023/12/22 11:45:30;;;;;;;;;;;4.30;99.90;;;;;;5072220;28;20321;-77
2023/12/22 11:48:17;;;;;;;;;;;4.30;99.90;;;;;;5078986;28;19924;-78
2023/12/22 11:51:14;;;;;;;;;;;4.30;99.90;;;;;;5073491;28;19923;-78
2023/12/22 11:54:00;;;;;;;;;;;4.20;99.90;;;;;;5050375;28;19913;-78
2023/12/22 11:56:46;;;;;;;;;;;4.30;99.90;;;;;;5069357;28;19917;-77
2023/12/22 11:59:35;;;;;;;;;;;4.30;99.90;;;;;;5051980;28;20245;-77
2023/12/22 12:02:21;;;;;;;;;;;4.40;99.90;;;;;;5047074;28;19912;-77
2023/12/22 12:05:08;;;;;;;;;;;4.30;99.90;;;;;;5061357;28;20366;-77
2023/12/22 12:07:56;;;;;;;;;;;4.30;99.90;;;;;;5074583;28;19912;-76
2023/12/22 12:10:53;;;;;;;;;;;4.30;99.90;;;;;;5056462;28;20237;-76
2023/12/22 12:13:50;;;;;;;;;;;4.40;99.90;;;;;;5057756;28;20264;-76
2023/12/22 12:16:36;;;;;;;;;;;4.40;99.90;;;;;;5047264;28;19947;-76
2023/12/22 12:19:24;;;;;;;;;;;4.40;99.90;;;;;;5068044;28;19923;-76
2023/12/22 12:22:12;;;;;;;;;;;4.40;99.90;;;;;;5063455;28;20015;-76
2023/12/22 12:24:58;;;;;;;;;;;4.30;99.90;;;;;;5077405;28;19912;-76
2023/12/22 12:27:47;;;;;;;;;;;4.30;99.90;;;;;;5064615;28;19980;-77
2023/12/22 12:30:33;;;;;;;;;;;4.30;99.90;;;;;;5058954;28;19940;-77
2023/12/22 12:33:20;;;;;;;;;;;4.20;99.90;;;;;;5057977;28;19920;-76
2023/12/22 12:36:06;;;;;;;;;;;4.30;99.90;;;;;;5116991;28;20336;-78
2023/12/22 12:38:59;;;;;;;;;;;4.30;99.90;;;;;;5127783;27;19922;-77
2023/12/22 12:41:46;;;;;;;;;;;4.30;99.90;;;;;;5124219;27;19911;-77
2023/12/22 12:44:33;;;;;;;;;;;4.30;99.90;;;;;;5093098;28;19922;-77
2023/12/22 12:47:20;;;;;;;;;;;4.30;99.90;;;;;;5107289;28;19977;-76
2023/12/22 12:50:06;;;;;;;;;;;4.40;99.90;;;;;;5090852;28;19911;-77
2023/12/22 12:52:54;;;;;;;;;;;4.40;99.90;;;;;;5103157;28;19915;-77
2023/12/22 12:55:40;;;;;;;;;;;4.40;99.90;;;;;;5096275;28;19923;-77
2023/12/22 12:58:33;;;;;;;;;;;4.40;99.90;;;;;;5083772;28;19912;-77
2023/12/22 13:01:20;;;;;;;;;;;4.50;99.90;;;;;;5111252;28;19969;-76
2023/12/22 13:04:06;;;;;;;;;;;4.50;99.90;;;;;;5117029;28;20275;-78
2023/12/22 13:06:54;;;;;;;;;;;4.50;99.90;;;;;;5102826;28;19919;-76
2023/12/22 13:09:44;;;;;;;;;;;4.60;99.90;;;;;;5118067;28;19912;-76
2023/12/22 13:12:32;;;;;;;;;;;4.60;99.90;;;;;;5087662;28;19982;-76
2023/12/22 13:15:20;;;;;;;;;;;4.60;99.90;;;;;;5097001;28;19913;-76
2023/12/22 13:18:06;;;;;;;;;;;4.60;99.90;;;;;;5110185;28;19991;-76
2023/12/22 13:20:53;;;;;;;;;;;4.60;99.90;;;;;;5101839;28;19922;-75
2023/12/22 13:23:43;;;;;;;;;;;4.70;99.90;;;;;;5096251;28;20003;-78
2023/12/22 13:26:30;;;;;;;;;;;4.70;99.90;;;;;;5097195;28;19916;-76
2023/12/22 13:29:18;;;;;;;;;;;4.70;99.90;;;;;;5116801;28;19947;-78
2023/12/22 13:32:04;;;;;;;;;;;4.70;99.90;;;;;;5101049;28;19911;-78
2023/12/22 13:35:06;;;;;;;;;;;4.70;99.90;;;;;;5095462;28;19920;-77
2023/12/22 13:37:53;;;;;;;;;;;4.70;99.90;;;;;;5109099;28;19916;-76
2023/12/22 13:40:39;;;;;;;;;;;4.70;99.90;;;;;;5095916;28;19920;-77
2023/12/22 13:43:29;;;;;;;;;;;4.70;99.90;;;;;;5085104;28;19923;-77
2023/12/22 13:46:16;;;;;;;;;;;4.70;99.90;;;;;;5089653;28;19974;-77
2023/12/22 13:49:03;;;;;;;;;;;4.70;99.90;;;;;;5081456;28;19912;-77
2023/12/22 13:51:51;;;;;;;;;;;4.70;99.90;;;;;;5091487;28;19919;-77
2023/12/22 13:54:38;;;;;;;;;;;4.80;99.90;;;;;;5112341;28;19915;-77
2023/12/22 13:57:25;;;;;;;;;;;4.80;99.90;;;;;;5113101;28;19930;-78
2023/12/22 14:00:28;;;;;;;;;;;4.90;99.90;;;;;;5114274;28;19911;-77
2023/12/22 14:03:21;;;;;;;;;;;4.80;99.90;;;;;;5108444;28;20018;-77
2023/12/22 14:06:09;;;;;;;;;;;4.80;99.90;;;;;;5115214;28;19943;-77
2023/12/22 14:08:55;;;;;;;;;;;4.80;99.90;;;;;;5104484;28;19912;-77
2023/12/22 14:11:42;;;;;;;;;;;4.90;99.90;;;;;;5115406;28;19919;-77
2023/12/22 14:14:30;;;;;;;;;;;4.90;99.90;;;;;;5100925;28;19912;-76
2023/12/22 14:17:19;;;;;;;;;;;5.00;99.90;;;;;;5114631;28;19915;-76
2023/12/22 14:20:09;;;;;;;;;;;5.10;99.90;;;;;;5116306;28;19912;-76
2023/12/22 14:22:55;;;;;;;;;;;5.20;99.90;;;;;;5115484;28;19994;-77
2023/12/22 14:25:41;;;;;;;;;;;5.30;99.90;;;;;;5103709;28;19962;-76
2023/12/22 14:28:29;;;;;;;;;;;5.30;99.90;;;;;;5082277;28;19912;-76
2023/12/22 14:31:16;;;;;;;;;;;5.20;99.90;;;;;;5090045;28;19916;-76
2023/12/22 14:34:16;;;;;;;;;;;;;;;;;;;;;
2023/12/22 14:37:05;;;;;;;;;;;5.00;99.90;;;;;;5104144;28;19973;-75
2023/12/22 14:39:52;;;;;;;;;;;4.80;99.90;;;;;;5085368;28;19918;-75
2023/12/22 14:42:39;;;;;;;;;;;4.70;99.90;;;;;;5099001;28;19912;-75
2023/12/22 14:45:26;;;;;;;;;;;4.70;99.90;;;;;;5095480;28;19951;-75
2023/12/22 14:48:13;;;;;;;;;;;4.60;99.90;;;;;;5094478;28;19912;-76
2023/12/22 14:51:00;;;;;;;;;;;4.70;99.90;;;;;;5094310;28;20248;-76
2023/12/22 14:53:47;;;;;;;;;;;4.60;99.90;;;;;;5100428;28;19923;-76
2023/12/22 14:56:34;;;;;;;;;;;4.70;99.90;;;;;;5095231;28;19924;-75
2023/12/22 14:59:21;;;;;;;;;;;4.70;99.90;;;;;;5113139;28;19912;-76
2023/12/22 15:02:08;;;;;;;;;;;4.70;99.90;;;;;;5100722;28;20388;-76
2023/12/22 15:04:55;;;;;;;;;;;4.80;99.90;;;;;;5092232;28;19998;-76
2023/12/22 15:07:42;;;;;;;;;;;4.90;99.90;;;;;;5096107;28;19962;-78
2023/12/22 15:10:30;;;;;;;;;;;4.90;99.90;;;;;;5096012;28;19912;-78
2023/12/22 15:13:16;;;;;;;;;;;4.90;99.90;;;;;;5112955;28;19912;-79
2023/12/22 15:16:06;;;;;;;;;;;4.90;99.90;;;;;;5102116;28;19969;-76
2023/12/22 15:18:53;;;;;;;;;;;5.00;99.90;;;;;;5102379;28;19919;-78
2023/12/22 15:21:41;;;;;;;;;;;5.00;99.90;;;;;;5104615;28;19912;-78
2023/12/22 15:24:29;;;;;;;;;;;5.10;99.90;;;;;;5087120;28;19940;-78
2023/12/22 15:27:16;;;;;;;;;;;5.10;99.90;;;;;;5095776;28;19916;-78
2023/12/22 15:30:03;;;;;;;;;;;4.90;99.90;;;;;;5081924;28;19912;-78
2023/12/22 15:32:51;;;;;;;;;;;4.80;99.90;;;;;;5095665;28;19912;-78
2023/12/22 15:35:38;;;;;;;;;;;4.70;99.90;;;;;;5082073;28;19976;-78
2023/12/22 15:38:25;;;;;;;;;;;4.60;99.90;;;;;;5111491;28;19968;-78
2023/12/22 15:41:12;;;;;;;;;;;4.40;99.90;;;;;;5098977;28;19916;-78
2023/12/22 15:43:59;;;;;;;;;;;4.40;99.90;;;;;;5096586;28;19919;-76
2023/12/22 15:46:46;;;;;;;;;;;4.40;99.90;;;;;;5100670;28;19912;-78
2023/12/22 15:49:36;;;;;;;;;;;4.40;99.90;;;;;;5118903;28;20365;-78
2023/12/22 15:52:24;;;;;;;;;;;4.40;99.90;;;;;;5095835;28;19912;-78
2023/12/22 15:55:11;;;;;;;;;;;4.50;99.90;;;;;;5117580;28;20004;-78
2023/12/22 15:57:58;;;;;;;;;;;4.40;99.90;;;;;;5118556;28;19915;-76
2023/12/22 16:00:45;;;;;;;;;;;4.30;99.90;;;;;;5099275;28;19927;-76
2023/12/22 16:03:32;;;;;;;;;;;4.30;99.90;;;;;;5110763;28;19912;-76
2023/12/22 16:06:20;;;;;;;;;;;4.10;99.90;;;;;;5104138;28;19912;-76
2023/12/22 16:09:05;;;;;;;;;;;4.10;99.90;;;;;;5118361;28;19958;-77
2023/12/22 16:11:52;;;;;;;;;;;4.10;99.90;;;;;;5096929;28;20329;-77
2023/12/22 16:14:38;;;;;;;;;;;4.10;99.90;;;;;;5101602;28;20236;-77
2023/12/22 16:17:25;;;;;;;;;;;4.00;99.90;;;;;;5113063;28;20329;-76
2023/12/22 16:20:15;;;;;;;;;;;4.10;99.90;;;;;;5101738;28;19912;-78
2023/12/22 16:23:02;;;;;;;;;;;4.10;99.90;;;;;;5099498;28;20359;-78
2023/12/22 16:25:53;;;;;;;;;;;4.00;99.90;;;;;;5110183;28;19920;-77
2023/12/22 16:28:41;;;;;;;;;;;4.00;99.90;;;;;;5098649;28;19951;-78